地図

経路データ

SID SEASON NUMBER BASIN SUBBASIN NAME ISO_TIME NATURE LAT LON WMO_WIND WMO_PRES WMO_AGENCY TRACK_TYPE DIST2LAND LANDFALL IFLAG USA_AGENCY USA_ATCF_ID USA_LAT USA_LON USA_RECORD USA_STATUS USA_WIND USA_PRES USA_SSHS USA_R34_NE USA_R34_SE USA_R34_SW USA_R34_NW USA_R50_NE USA_R50_SE USA_R50_SW USA_R50_NW USA_R64_NE USA_R64_SE USA_R64_SW USA_R64_NW USA_POCI USA_ROCI USA_RMW USA_EYE TOKYO_LAT TOKYO_LON TOKYO_GRADE TOKYO_WIND TOKYO_PRES TOKYO_R50_DIR TOKYO_R50_LONG TOKYO_R50_SHORT TOKYO_R30_DIR TOKYO_R30_LONG TOKYO_R30_SHORT TOKYO_LAND CMA_LAT CMA_LON CMA_CAT CMA_WIND CMA_PRES HKO_LAT HKO_LON HKO_CAT HKO_WIND HKO_PRES NEWDELHI_LAT NEWDELHI_LON NEWDELHI_GRADE NEWDELHI_WIND NEWDELHI_PRES NEWDELHI_CI NEWDELHI_DP NEWDELHI_POCI REUNION_LAT REUNION_LON REUNION_TYPE REUNION_WIND REUNION_PRES REUNION_TNUM REUNION_CI REUNION_RMW REUNION_R34_NE REUNION_R34_SE REUNION_R34_SW REUNION_R34_NW REUNION_R50_NE REUNION_R50_SE REUNION_R50_SW REUNION_R50_NW REUNION_R64_NE REUNION_R64_SE REUNION_R64_SW REUNION_R64_NW BOM_LAT BOM_LON BOM_TYPE BOM_WIND BOM_PRES BOM_TNUM BOM_CI BOM_RMW BOM_R34_NE BOM_R34_SE BOM_R34_SW BOM_R34_NW BOM_R50_NE BOM_R50_SE BOM_R50_SW BOM_R50_NW BOM_R64_NE BOM_R64_SE BOM_R64_SW BOM_R64_NW BOM_ROCI BOM_POCI BOM_EYE BOM_POS_METHOD BOM_PRES_METHOD NADI_LAT NADI_LON NADI_CAT NADI_WIND NADI_PRES WELLINGTON_LAT WELLINGTON_LON WELLINGTON_WIND WELLINGTON_PRES DS824_LAT DS824_LON DS824_STAGE DS824_WIND DS824_PRES TD9636_LAT TD9636_LON TD9636_STAGE TD9636_WIND TD9636_PRES TD9635_LAT TD9635_LON TD9635_WIND TD9635_PRES TD9635_ROCI NEUMANN_LAT NEUMANN_LON NEUMANN_CLASS NEUMANN_WIND NEUMANN_PRES MLC_LAT MLC_LON MLC_CLASS MLC_WIND MLC_PRES USA_GUST BOM_GUST BOM_GUST_PER REUNION_GUST REUNION_GUST_PER USA_SEAHGT USA_SEARAD_NE USA_SEARAD_SE USA_SEARAD_SW USA_SEARAD_NW STORM_SPEED STORM_DIR
1958364S13108 1959 116 SI WA NOT_NAMED 1958-12-29 23:00:00 NR -13.0000 107.700 main 587 587 __________O___ -1 -13.0000 107.700 7 12 214
1958364S13108 1959 116 SI WA NOT_NAMED 1958-12-30 00:00:00 TS -13.1707 107.584 main 611 611 O________OP___ jtwc_sh SH061959 -13.2000 107.600 -1 -13.2000 107.600 TC 25 -13.1267 107.559 7 11 223
1958364S13108 1959 116 SI WA NOT_NAMED 1958-12-30 01:00:00 TS -13.2570 107.456 1002 bom main 623 623 P_____O__PP___ SH061959 -13.3195 107.467 -1 -12.9000 107.500 1002 -13.3195 107.467 TC 25 -13.2511 107.419 7 10 231
1958364S13108 1959 116 SI WA NOT_NAMED 1958-12-30 03:00:00 TS -13.4724 107.200 main 651 651 P_____P__PP___ SH061959 -13.5451 107.200 -1 -13.1202 107.321 1001 -13.5451 107.200 TC 25 -13.4847 107.139 7 9 232
1958364S13108 1959 116 SI WA NOT_NAMED 1958-12-30 06:00:00 TS -13.7373 106.825 main 680 680 O_____P__OP___ jtwc_sh SH061959 -13.8000 106.800 -1 -13.4504 107.051 1001 -13.8000 106.800 TC 25 -13.7646 106.730 7 8 241
1958364S13108 1959 116 SI WA NOT_NAMED 1958-12-30 09:00:00 TS -13.8717 106.465 main 708 708 P_____P__PP___ SH061959 -13.8899 106.400 -1 -13.7803 106.781 1000 -13.8899 106.400 TC 25 -13.9084 106.342 7 7 255
1958364S13108 1959 116 SI WA NOT_NAMED 1958-12-30 11:00:00 TS -13.8900 106.220 1000 bom main 716 708 P_____O__PO___ SH061959 -13.8500 106.133 -1 -14.0000 106.600 1000 -13.8500 106.133 TC 25 -13.9000 106.100 1 7 275
1958364S13108 1959 116 SI WA NOT_NAMED 1958-12-30 12:00:00 TS -13.8376 106.098 main 708 696 O_____P__OP___ jtwc_sh SH061959 -13.8000 106.000 -1 -13.9288 106.507 -13.8000 106.000 TC 25 -13.8590 105.985 1 8 303
1958364S13108 1959 116 SI WA NOT_NAMED 1958-12-30 15:00:00 TS -13.5887 105.735 main 698 668 P_____P__PP___ SH061959 -13.5374 105.600 -1 -13.7150 106.227 -13.5374 105.600 TC 25 -13.6160 105.650 1 9 309
1958364S13108 1959 116 SI WA NOT_NAMED 1958-12-30 18:00:00 TS -13.2734 105.371 main 669 643 O_____P__OP___ jtwc_sh SH061959 -13.2000 105.200 -1 -13.5008 105.949 -13.2000 105.200 TC 25 -13.2660 105.305 1 9 311
1958364S13108 1959 116 SI WA NOT_NAMED 1958-12-30 21:00:00 TS -12.9942 105.023 main 645 629 P_____P__PP___ SH061959 -12.9272 104.845 -1 -13.2864 105.670 -12.9272 104.845 TC 25 -12.9030 104.909 1 9 306
1958364S13108 1959 116 SI WA NOT_NAMED 1958-12-30 23:00:00 TS -12.8136 104.719 main 632 625 P_____P__PO___ SH061959 -12.7691 104.568 -1 -13.1433 105.485 -12.7691 104.568 TC 25 -12.7000 104.600 1 11 298
1958364S13108 1959 116 SI WA NOT_NAMED 1958-12-31 00:00:00 TS -12.7269 104.512 main 629 629 O_____P__OP___ jtwc_sh SH061959 -12.7000 104.400 -1 -13.0716 105.393 -12.7000 104.400 TC 25 -12.6353 104.408 1 14 291
1958364S13108 1959 116 SI WA NOT_NAMED 1958-12-31 01:00:00 TS -12.6402 104.261 1000 bom main 626 626 P_____O__PP___ SH061959 -12.6308 104.193 -1 -13.0000 105.300 1000 4 -12.6308 104.193 TC 25 -12.5783 104.203 1 16 286
1958364S13108 1959 116 SI WA NOT_NAMED 1958-12-31 03:00:00 TS -12.5062 103.733 main 643 643 P________PP___ SH061959 -12.5128 103.722 -1 -12.5128 103.722 TC 25 -12.4866 103.766 1 15 281
1958364S13108 1959 116 SI WA NOT_NAMED 1958-12-31 06:00:00 TS -12.4008 103.019 main 672 672 O________OP___ jtwc_sh SH061959 -12.4000 103.000 -1 -12.4000 103.000 TC 25 -12.4030 103.076 1 13 276
1958364S13108 1959 116 SI WA NOT_NAMED 1958-12-31 09:00:00 TS -12.3615 102.405 main 698 698 P________PP___ SH061959 -12.3549 102.405 -1 -12.3549 102.405 TC 25 -12.3813 102.405 1 11 271
1958364S13108 1959 116 SI WA NOT_NAMED 1958-12-31 11:00:00 TS -12.3812 102.044 main 718 718 P________PO___ SH061959 -12.3749 102.058 -1 -12.3749 102.058 TC 25 -12.4000 102.000 1 10 265
1958364S13108 1959 116 SI WA NOT_NAMED 1958-12-31 12:00:00 TS -12.4049 101.883 main 724 724 O________OP___ jtwc_sh SH061959 -12.4000 101.900 -1 -12.4000 101.900 TC 25 -12.4194 101.833 1 9 255
1958364S13108 1959 116 SI WA NOT_NAMED 1958-12-31 15:00:00 TS -12.5322 101.455 main 756 756 P________PP___ SH061959 -12.5348 101.478 -1 -12.5348 101.478 TC 30 -12.5242 101.388 1 8 250
1958364S13108 1959 116 SI WA NOT_NAMED 1958-12-31 18:00:00 TS -12.6924 101.075 main 799 799 O________OP___ jtwc_sh SH061959 -12.7000 101.100 -1 -12.7000 101.100 TC 35 -12.6696 101.001 1 8 249
1958364S13108 1959 116 SI WA NOT_NAMED 1958-12-31 21:00:00 TS -12.8157 100.685 main 833 833 P________PP___ SH061959 -12.8149 100.700 -1 -12.8149 100.700 TC 50 -12.8180 100.641 1 8 253
1958364S13108 1959 116 SI WA NOT_NAMED 1958-12-31 23:00:00 TS -12.8812 100.425 main 862 862 P________PO___ SH061959 -12.8750 100.433 -1 -12.8750 100.433 TC 60 -12.9000 100.400 4 8 257
1958364S13108 1959 116 SI WA NOT_NAMED 1959-01-01 00:00:00 TS -12.9054 100.291 main 869 869 O________OP___ jtwc_sh SH061959 -12.9000 100.300 -1 -12.9000 100.300 TC 65 -12.9217 100.264 4 8 261
1958364S13108 1959 116 SI WA NOT_NAMED 1959-01-01 03:00:00 TS -12.9649 99.8889 main 905 905 P________PP___ SH061959 -12.9649 99.9000 -1 -12.9649 99.9000 TC 50 -12.9648 99.8555 4 8 263
1958364S13108 1959 116 SI WA NOT_NAMED 1959-01-01 06:00:00 TS -12.9962 99.4876 main 933 933 O________OP___ jtwc_sh SH061959 -13.0000 99.5000 -1 -13.0000 99.5000 TC 35 -12.9847 99.4505 4 8 268
1958364S13108 1959 116 SI WA NOT_NAMED 1959-01-01 09:00:00 TS -12.9984 99.0887 main 963 963 P________PP___ SH061959 -12.9999 99.0999 -1 -12.9999 99.0999 TC 35 -12.9938 99.0551 4 8 270
1958364S13108 1959 116 SI WA NOT_NAMED 1959-01-01 11:00:00 TS -12.9977 98.8250 main 986 986 P________PO___ SH061959 -12.9969 98.8333 -1 -12.9969 98.8333 TC 35 -13.0000 98.8000 2 8 270
1958364S13108 1959 116 SI WA NOT_NAMED 1959-01-01 12:00:00 TS -13.0006 98.6843 main 994 994 O________OP___ jtwc_sh SH061959 -13.0000 98.7000 -1 -13.0000 98.7000 TC 35 -13.0022 98.6373 2 9 266
1958364S13108 1959 116 SI WA NOT_NAMED 1959-01-01 15:00:00 TS -13.0391 98.2442 main 1034 1034 P________PP___ SH061959 -13.0500 98.2776 -1 -13.0500 98.2776 TC 35 -13.0063 98.1440 2 8 264
1958364S13108 1959 116 SI WA NOT_NAMED 1959-01-01 18:00:00 TS -13.0796 97.8539 main 1066 1066 O________OP___ jtwc_sh SH061959 -13.1000 97.9000 -1 -13.1000 97.9000 TC 35 -13.0184 97.7156 2 7 267
1958364S13108 1959 116 SI WA NOT_NAMED 1959-01-01 21:00:00 TS -13.0774 97.5202 main 1099 1099 P________PP___ SH061959 -13.0849 97.5450 -1 -13.0849 97.5450 TC 35 -13.0546 97.4457 2 5 269
1958364S13108 1959 116 SI WA NOT_NAMED 1959-01-01 23:00:00 TS -13.0891 97.4095 main 1108 1108 P________PO___ SH061959 -13.0854 97.4127 -1 -13.0854 97.4127 TC 35 -13.1000 97.4000 2 2 256
1958364S13108 1959 116 SI WA NOT_NAMED 1959-01-02 00:00:00 TS -13.1070 97.4070 main 1108 1098 O________OP___ jtwc_sh SH061959 -13.1000 97.4000 -1 -13.1000 97.4000 TC 35 -13.1281 97.4281 2 3 128
1958364S13108 1959 116 SI WA NOT_NAMED 1959-01-02 03:00:00 TS -13.2243 97.5888 main 1098 1080 P________PP___ SH061959 -13.2197 97.5576 -1 -13.2197 97.5576 TC 30 -13.2382 97.6825 2 7 115
1958364S13108 1959 116 SI WA NOT_NAMED 1959-01-02 06:00:00 TS -13.3961 98.0358 main 1080 1049 O________OP___ jtwc_sh SH061959 -13.4000 98.0000 -1 -13.4000 98.0000 TC 25 -13.3844 98.1433 2 11 109
1958364S13108 1959 116 SI WA NOT_NAMED 1959-01-02 09:00:00 TS -13.5797 98.6558 main 1042 1021 P________PP___ SH061959 -13.5851 98.6251 -1 -13.5851 98.6251 TC 25 -13.5637 98.7480 2 14 107
1958364S13108 1959 116 SI WA NOT_NAMED 1959-01-02 11:00:00 TS -13.7187 99.1508 main 1014 1008 P________PO___ SH061959 -13.7250 99.1343 -1 -13.7250 99.1343 TC 25 -13.7000 99.2000 1 15 107
1958364S13108 1959 116 SI WA NOT_NAMED 1959-01-02 12:00:00 TS -13.7957 99.4057 main 1008 980 O________OP___ jtwc_sh SH061959 -13.8000 99.4000 -1 -13.8000 99.4000 TC 25 -13.7827 99.4228 1 16 108
1958364S13108 1959 116 SI WA NOT_NAMED 1959-01-02 15:00:00 TS -14.0519 100.191 main 983 958 P________PP___ SH061959 -14.0500 100.200 -1 -14.0500 100.200 TC 25 -14.0576 100.163 1 16 108
1958364S13108 1959 116 SI WA NOT_NAMED 1959-01-02 18:00:00 TS -14.3096 100.989 main 957 943 O________OP___ jtwc_sh SH061959 -14.3000 101.000 -1 -14.3000 101.000 TC 25 -14.3384 100.956 1 16 108
1958364S13108 1959 116 SI WA NOT_NAMED 1959-01-02 21:00:00 TS -14.5426 101.741 main 943 933 P________PP___ SH061959 -14.5299 101.745 -1 -14.5299 101.745 TC 25 -14.5809 101.730 1 15 107
1958364S13108 1959 116 SI WA NOT_NAMED 1959-01-02 23:00:00 TS -14.6648 102.196 main 937 926 P________PO___ SH061959 -14.6530 102.195 -1 -14.6530 102.195 TC 25 -14.7000 102.200 1 13 105
1958364S13108 1959 116 SI WA NOT_NAMED 1959-01-03 00:00:00 TS -14.7098 102.400 main 926 912 O________OP___ jtwc_sh SH061959 -14.7000 102.400 -1 -14.7000 102.400 TC 25 -14.7392 102.400 1 11 100
1958364S13108 1959 116 SI WA NOT_NAMED 1959-01-03 03:00:00 TS -14.7917 102.945 main 912 891 P________PP___ SH061959 -14.7873 102.945 -1 -14.7873 102.945 TC 25 -14.8049 102.943 1 10 95
1958364S13108 1959 116 SI WA NOT_NAMED 1959-01-03 06:00:00 TS -14.8012 103.403 main 891 875 O________OP___ jtwc_sh SH061959 -14.8000 103.400 -1 -14.8000 103.400 TC 25 -14.8048 103.414 1 8 89
1958364S13108 1959 116 SI WA NOT_NAMED 1959-01-03 09:00:00 TS -14.7791 103.820 main 875 855 P________PP___ SH061959 -14.7873 103.815 -1 -14.7873 103.815 TC 25 -14.7543 103.835 1 8 84
1958364S13108 1959 116 SI WA NOT_NAMED 1959-01-03 11:00:00 TS -14.7292 104.079 main 855 852 P________PO___ SH061959 -14.7390 104.072 -1 -14.7390 104.072 TC 25 -14.7000 104.100 1 8 77
1958364S13108 1959 116 SI WA NOT_NAMED 1959-01-03 12:00:00 TS -14.6910 104.211 main 852 819 O________OP___ jtwc_sh SH061959 -14.7000 104.200 -1 -14.7000 104.200 TC 25 -14.6639 104.244 1 9 67
1958364S13108 1959 116 SI WA NOT_NAMED 1959-01-03 15:00:00 TS -14.5059 104.619 main 819 787 P________PP___ SH061959 -14.5000 104.608 -1 -14.5000 104.608 TC 25 -14.5237 104.654 1 9 64
1958364S13108 1959 116 SI WA NOT_NAMED 1959-01-03 18:00:00 TS -14.3174 105.009 main 787 769 O________OP___ jtwc_sh SH061959 -14.3000 105.000 -1 -14.3000 105.000 TC 25 -14.3695 105.034 1 8 68
1958364S13108 1959 116 SI WA NOT_NAMED 1959-01-03 21:00:00 TS -14.2149 105.370 main 769 766 P________PP___ SH061959 -14.2049 105.365 -1 -14.2049 105.365 TC 25 -14.2449 105.384 1 7 78
1958364S13108 1959 116 SI WA NOT_NAMED 1959-01-03 23:00:00 TS -14.1937 105.594 main 766 763 P________PO___ SH061959 -14.1916 105.592 -1 -14.1916 105.592 TC 25 -14.2000 105.600 1 6 88
1958364S13108 1959 116 SI WA NOT_NAMED 1959-01-04 00:00:00 TS -14.2014 105.702 main 763 756 O________OP___ jtwc_sh SH061959 -14.2000 105.700 -1 -14.2000 105.700 TC 25 -14.2055 105.706 1 6 102
1958364S13108 1959 116 SI WA NOT_NAMED 1959-01-04 03:00:00 TS -14.2763 106.012 main 764 759 P________PP___ SH061959 -14.2775 106.015 -1 -14.2775 106.015 TC 25 -14.2728 106.003 1 6 109
1958364S13108 1959 116 SI WA NOT_NAMED 1959-01-04 06:00:00 TS -14.3974 106.294 main 768 765 O________OP___ jtwc_sh SH061959 -14.4000 106.300 -1 -14.4000 106.300 TC 25 -14.3894 106.276 1 6 114
1958364S13108 1959 116 SI WA NOT_NAMED 1959-01-04 09:00:00 TS -14.5108 106.551 main 772 772 P________PP___ SH061959 -14.5074 106.558 -1 -14.5074 106.558 TC 25 -14.5210 106.533 1 5 114
1958364S13108 1959 116 SI WA NOT_NAMED 1959-01-04 11:00:00 TS -14.5793 106.714 main 782 780 P________PO___ SH061959 -14.5724 106.719 -1 -14.5724 106.719 TC 25 -14.6000 106.700 1 5 113
1958364S13108 1959 116 SI WA NOT_NAMED 1959-01-04 12:00:00 TS -14.6103 106.795 main 780 778 O________OP___ jtwc_sh SH061959 -14.6000 106.800 -1 -14.6000 106.800 TC 25 -14.6333 106.783 1 5 108
1958364S13108 1959 116 SI WA NOT_NAMED 1959-01-04 15:00:00 TS -14.6796 107.042 main 787 782 P________PP___ SH061959 -14.6601 107.048 -1 -14.6601 107.048 TC 25 -14.7089 107.034 1 5 104
1958364S13108 1959 116 SI WA NOT_NAMED 1959-01-04 18:00:00 TS -14.7280 107.292 main 782 780 O________OP___ jtwc_sh SH061959 -14.7000 107.300 -1 -14.7000 107.300 TC 25 -14.7560 107.284 1 5 103
1958364S13108 1959 116 SI WA NOT_NAMED 1959-01-04 21:00:00 NR -14.7852 107.533 main 790 787 __________P___ SH061959 -1 TC -14.7852 107.533 1 5 100
1958364S13108 1959 116 SI WA NOT_NAMED 1959-01-04 23:00:00 NR -14.8000 107.700 main 787 __________O___ SH061959 -1 TC -14.8000 107.700 1 5 95

IBTrACS Databaseについて

本データベースは、米国NOAAが公開する1842年以降の世界の熱帯低気圧のベストトラックデータアーカイブInternational Best Track Archive for Climate Stewardship (IBTrACS)を、ウェブで閲覧しやすい形式に変換したものです。

最終更新日:2021-11-26